Melvan — FGG8116 — position and weather

sailwx.info

Track history (hours):
 
Tides and Currents Weather Stations Pressure Air Temp Water Temp Dewpoint Dewpoint Depression Visibility Wind Speed Wind Dir Waves Ship Positions

Melvan

Last reported at 2018-Jan-24 11:11 UTC. Time now 2018-Jan-24 11:53 UTC.
Position N 47°29' W 003°07'.

Length 32 m; draft 1.6 m.

Type: Passenger vessel. MMSI: 227051790.

Date/timePositionNaut miles runAvg speedWind from/ knotsBaromVisibWave heightAir tempDewpointWater temp
2018-Jan-24 11:11N 47°29' W 003°07'0 0.0
2018-Jan-24 11:00N 47°29' W 003°07'0 0.0
2018-Jan-24 10:30N 47°29' W 003°07'0 0.0
2018-Jan-24 10:00N 47°29' W 003°07'0 0.0
2018-Jan-24 09:28N 47°29' W 003°07'0 0.0
2018-Jan-24 09:00N 47°29' W 003°07'0 0.0
2018-Jan-24 08:30N 47°29' W 003°07'0 0.0
2018-Jan-24 08:00N 47°29' W 003°07'3 5.2
2018-Jan-24 07:30N 47°27' W 003°05'611.7
2018-Jan-24 07:00N 47°24' W 002°57'4 8.6
2018-Jan-24 06:30N 47°21' W 002°53'0 0.4
2018-Jan-24 06:00N 47°21' W 002°53'0 0.0
2018-Jan-23 17:29N 47°21' W 002°53'3 6.5
2018-Jan-23 17:00N 47°23' W 002°55'4 7.0
2018-Jan-23 16:30N 47°25' W 002°60'612.7
2018-Jan-23 16:00N 47°29' W 003°07'0 0.0
2018-Jan-23 15:30N 47°29' W 003°07'4 8.2
2018-Jan-23 15:01N 47°26' W 003°02'4 8.6
2018-Jan-23 14:30N 47°24' W 002°57'4 8.9
2018-Jan-23 14:00N 47°21' W 002°53'0 0.0
2018-Jan-23 13:31N 47°21' W 002°53'0 0.0
2018-Jan-23 09:59N 47°21' W 002°53'3 6.2
2018-Jan-23 09:31N 47°23' W 002°55'3 5.1
2018-Jan-23 09:00N 47°24' W 002°58'714.1
2018-Jan-23 08:30N 47°28' W 003°07'1 1.1
2018-Jan-23 08:00N 47°29' W 003°07'2 3.7
2018-Jan-23 07:31N 47°28' W 003°05'712.3
2018-Jan-23 06:58N 47°24' W 002°57'4 8.2
2018-Jan-23 06:30N 47°21' W 002°53'1 1.3
2018-Jan-23 06:00N 47°21' W 002°53'0 0.0
2018-Jan-22 17:13N 47°21' W 002°53'1 5.6
2018-Jan-22 17:00N 47°22' W 002°53'3 6.5
2018-Jan-22 16:30N 47°24' W 002°57'714.9
2018-Jan-22 16:00N 47°28' W 003°07'1 2.3
2018-Jan-22 15:31N 47°29' W 003°07'5 9.7
2018-Jan-22 15:00N 47°26' W 003°01'4 7.1
2018-Jan-22 14:30N 47°24' W 002°57'4 8.9
2018-Jan-22 14:00N 47°21' W 002°53'0 0.0
2018-Jan-22 13:30N 47°21' W 002°53'0 0.0
2018-Jan-22 08:54N 47°21' W 002°53'2 4.3
2018-Jan-22 08:31N 47°22' W 002°54'3 6.7
2018-Jan-22 08:01N 47°24' W 002°57'815.1
2018-Jan-22 07:30N 47°29' W 003°06'0 0.4
2018-Jan-22 07:00N 47°29' W 003°06'1 1.2
2018-Jan-22 06:31N 47°29' W 003°05'713.2
2018-Jan-22 06:01N 47°25' W 002°58'2 4.5
2018-Jan-22 05:30N 47°23' W 002°55'3 6.6
2018-Jan-22 05:00N 47°21' W 002°53'0 0.0
2018-Jan-21 18:58N 47°21' W 002°53'4 9.6
2018-Jan-21 18:31N 47°24' W 002°57'4 8.6
2018-Jan-21 18:01N 47°26' W 003°02'4 8.3
2018-Jan-21 17:30N 47°29' W 003°07'4 8.5
2018-Jan-21 17:01N 47°26' W 003°02'4 8.4
2018-Jan-21 16:31N 47°24' W 002°57'4 8.4
2018-Jan-21 15:59N 47°21' W 002°53'0 0.1
2018-Jan-21 15:30N 47°21' W 002°53'0 0.0
2018-Jan-21 10:47N 47°21' W 002°53'1 2.4
2018-Jan-21 10:31N 47°21' W 002°53'4 8.4
2018-Jan-21 10:00N 47°24' W 002°58'815.4
2018-Jan-21 09:30N 47°29' W 003°06'0 0.4
2018-Jan-21 09:00N 47°29' W 003°06'1 2.9
2018-Jan-21 08:30N 47°29' W 003°04'713.6
2018-Jan-21 08:01N 47°24' W 002°57'4 7.9
2018-Jan-21 07:30N 47°21' W 002°53'1 0.0
2018-Jan-20 10:58N 47°21' W 002°53'0 0.0
2018-Jan-20 10:30N 47°21' W 002°53'0 0.0
2018-Jan-19 19:44N 47°21' W 002°53'0 0.6
2018-Jan-19 19:30N 47°21' W 002°53'4 8.8
2018-Jan-19 19:00N 47°24' W 002°57'611.5
2018-Jan-19 18:31N 47°27' W 003°04'3 5.3
2018-Jan-19 18:00N 47°29' W 003°07'0 0.0
2018-Jan-19 17:30N 47°29' W 003°07'4 9.1
2018-Jan-19 17:00N 47°26' W 003°02'4 8.1
2018-Jan-19 16:31N 47°24' W 002°57'4 8.2
2018-Jan-19 15:59N 47°21' W 002°53'1 1.3
2018-Jan-19 15:30N 47°21' W 002°53'4 7.9
2018-Jan-19 15:01N 47°24' W 002°57'4 8.8
2018-Jan-19 14:30N 47°21' W 002°53'0 0.0
2018-Jan-19 10:05N 47°21' W 002°53'0 0.0
2018-Jan-19 10:01N 47°21' W 002°53'4 8.7
2018-Jan-19 09:30N 47°24' W 002°57'2 3.1
2018-Jan-19 09:01N 47°25' W 002°59'713.3
2018-Jan-19 08:30N 47°28' W 003°07'0 0.7
2018-Jan-19 08:00N 47°29' W 003°07'3 5.1
2018-Jan-19 07:31N 47°27' W 003°05'611.8
2018-Jan-19 07:00N 47°24' W 002°57'4 9.0
2018-Jan-19 06:31N 47°21' W 002°52'0 0.1
2018-Jan-19 06:00N 47°21' W 002°53'0 0.0
2018-Jan-18 17:20N 47°21' W 002°53'1 1.7
2018-Jan-18 17:00N 47°21' W 002°53'4 7.9
2018-Jan-18 16:31N 47°24' W 002°57'815.2
2018-Jan-18 16:01N 47°28' W 003°07'1 2.0
2018-Jan-18 15:30N 47°29' W 003°07'4 7.1
2018-Jan-18 15:00N 47°27' W 003°03'5 9.7
2018-Jan-18 14:30N 47°24' W 002°57'4 9.0
2018-Jan-18 14:01N 47°21' W 002°53'0 0.0
2018-Jan-18 13:30N 47°21' W 002°53'  
Track history (hours):
 
Tides and Currents Weather Stations Pressure Air Temp Water Temp Dewpoint Dewpoint Depression Visibility Wind Speed Wind Dir Waves Ship Positions

Melvan

Last reported at 2018-Jan-24 11:11 UTC. Time now 2018-Jan-24 11:53 UTC.
Position N 47°29' W 003°07'.

Length 32 m; draft 1.6 m.

Type: Passenger vessel. MMSI: 227051790.

Date/timePositionNaut miles runAvg speedWind from/ knotsBaromVisibWave heightAir tempDewpointWater temp
2018-Jan-24 11:11N 47°29' W 003°07'0 0.0
2018-Jan-24 11:00N 47°29' W 003°07'0 0.0
2018-Jan-24 10:30N 47°29' W 003°07'0 0.0
2018-Jan-24 10:00N 47°29' W 003°07'0 0.0
2018-Jan-24 09:28N 47°29' W 003°07'0 0.0
2018-Jan-24 09:00N 47°29' W 003°07'0 0.0
2018-Jan-24 08:30N 47°29' W 003°07'0 0.0
2018-Jan-24 08:00N 47°29' W 003°07'3 5.2
2018-Jan-24 07:30N 47°27' W 003°05'611.7
2018-Jan-24 07:00N 47°24' W 002°57'4 8.6
2018-Jan-24 06:30N 47°21' W 002°53'0 0.4
2018-Jan-24 06:00N 47°21' W 002°53'0 0.0
2018-Jan-23 17:29N 47°21' W 002°53'3 6.5
2018-Jan-23 17:00N 47°23' W 002°55'4 7.0
2018-Jan-23 16:30N 47°25' W 002°60'612.7
2018-Jan-23 16:00N 47°29' W 003°07'0 0.0
2018-Jan-23 15:30N 47°29' W 003°07'4 8.2
2018-Jan-23 15:01N 47°26' W 003°02'4 8.6
2018-Jan-23 14:30N 47°24' W 002°57'4 8.9
2018-Jan-23 14:00N 47°21' W 002°53'0 0.0
2018-Jan-23 13:31N 47°21' W 002°53'0 0.0
2018-Jan-23 09:59N 47°21' W 002°53'3 6.2
2018-Jan-23 09:31N 47°23' W 002°55'3 5.1
2018-Jan-23 09:00N 47°24' W 002°58'714.1
2018-Jan-23 08:30N 47°28' W 003°07'1 1.1
2018-Jan-23 08:00N 47°29' W 003°07'2 3.7
2018-Jan-23 07:31N 47°28' W 003°05'712.3
2018-Jan-23 06:58N 47°24' W 002°57'4 8.2
2018-Jan-23 06:30N 47°21' W 002°53'1 1.3
2018-Jan-23 06:00N 47°21' W 002°53'0 0.0
2018-Jan-22 17:13N 47°21' W 002°53'1 5.6
2018-Jan-22 17:00N 47°22' W 002°53'3 6.5
2018-Jan-22 16:30N 47°24' W 002°57'714.9
2018-Jan-22 16:00N 47°28' W 003°07'1 2.3
2018-Jan-22 15:31N 47°29' W 003°07'5 9.7
2018-Jan-22 15:00N 47°26' W 003°01'4 7.1
2018-Jan-22 14:30N 47°24' W 002°57'4 8.9
2018-Jan-22 14:00N 47°21' W 002°53'0 0.0
2018-Jan-22 13:30N 47°21' W 002°53'0 0.0
2018-Jan-22 08:54N 47°21' W 002°53'2 4.3
2018-Jan-22 08:31N 47°22' W 002°54'3 6.7
2018-Jan-22 08:01N 47°24' W 002°57'815.1
2018-Jan-22 07:30N 47°29' W 003°06'0 0.4
2018-Jan-22 07:00N 47°29' W 003°06'1 1.2
2018-Jan-22 06:31N 47°29' W 003°05'713.2
2018-Jan-22 06:01N 47°25' W 002°58'2 4.5
2018-Jan-22 05:30N 47°23' W 002°55'3 6.6
2018-Jan-22 05:00N 47°21' W 002°53'0 0.0
2018-Jan-21 18:58N 47°21' W 002°53'4 9.6
2018-Jan-21 18:31N 47°24' W 002°57'4 8.6
2018-Jan-21 18:01N 47°26' W 003°02'4 8.3
2018-Jan-21 17:30N 47°29' W 003°07'4 8.5
2018-Jan-21 17:01N 47°26' W 003°02'4 8.4
2018-Jan-21 16:31N 47°24' W 002°57'4 8.4
2018-Jan-21 15:59N 47°21' W 002°53'0 0.1
2018-Jan-21 15:30N 47°21' W 002°53'0 0.0
2018-Jan-21 10:47N 47°21' W 002°53'1 2.4
2018-Jan-21 10:31N 47°21' W 002°53'4 8.4
2018-Jan-21 10:00N 47°24' W 002°58'815.4
2018-Jan-21 09:30N 47°29' W 003°06'0 0.4
2018-Jan-21 09:00N 47°29' W 003°06'1 2.9
2018-Jan-21 08:30N 47°29' W 003°04'713.6
2018-Jan-21 08:01N 47°24' W 002°57'4 7.9
2018-Jan-21 07:30N 47°21' W 002°53'1 0.0
2018-Jan-20 10:58N 47°21' W 002°53'0 0.0
2018-Jan-20 10:30N 47°21' W 002°53'0 0.0
2018-Jan-19 19:44N 47°21' W 002°53'0 0.6
2018-Jan-19 19:30N 47°21' W 002°53'4 8.8
2018-Jan-19 19:00N 47°24' W 002°57'611.5
2018-Jan-19 18:31N 47°27' W 003°04'3 5.3
2018-Jan-19 18:00N 47°29' W 003°07'0 0.0
2018-Jan-19 17:30N 47°29' W 003°07'4 9.1
2018-Jan-19 17:00N 47°26' W 003°02'4 8.1
2018-Jan-19 16:31N 47°24' W 002°57'4 8.2
2018-Jan-19 15:59N 47°21' W 002°53'1 1.3
2018-Jan-19 15:30N 47°21' W 002°53'4 7.9
2018-Jan-19 15:01N 47°24' W 002°57'4 8.8
2018-Jan-19 14:30N 47°21' W 002°53'0 0.0
2018-Jan-19 10:05N 47°21' W 002°53'0 0.0
2018-Jan-19 10:01N 47°21' W 002°53'4 8.7
2018-Jan-19 09:30N 47°24' W 002°57'2 3.1
2018-Jan-19 09:01N 47°25' W 002°59'713.3
2018-Jan-19 08:30N 47°28' W 003°07'0 0.7
2018-Jan-19 08:00N 47°29' W 003°07'3 5.1
2018-Jan-19 07:31N 47°27' W 003°05'611.8
2018-Jan-19 07:00N 47°24' W 002°57'4 9.0
2018-Jan-19 06:31N 47°21' W 002°52'0 0.1
2018-Jan-19 06:00N 47°21' W 002°53'0 0.0
2018-Jan-18 17:20N 47°21' W 002°53'1 1.7
2018-Jan-18 17:00N 47°21' W 002°53'4 7.9
2018-Jan-18 16:31N 47°24' W 002°57'815.2
2018-Jan-18 16:01N 47°28' W 003°07'1 2.0
2018-Jan-18 15:30N 47°29' W 003°07'4 7.1
2018-Jan-18 15:00N 47°27' W 003°03'5 9.7
2018-Jan-18 14:30N 47°24' W 002°57'4 9.0
2018-Jan-18 14:01N 47°21' W 002°53'0 0.0
2018-Jan-18 13:30N 47°21' W 002°53'  

Dump ship's entire track history